Walla Walla, Washington
Current Conditions -  °F | °C
As of 1:53 AM on Friday 24 Oct 2014 (Local Time) from KALW Reporting Station
Overcast Overcast  
Wind Chill: 51°   Ceiling: 8000
Heat Index: 51°   Visibility: 10mi
Dew Point: 46°   Wind: 6mph
Humidity: 83%   Direction: 110°ESE
Pressure: 30.04"   Gusts: NA
Location:  46.07°N, 118.34°W
Report Text: KALW 240853Z AUTO 11005KT 10SM OVC080 11/08 A3004 RMK AO2 SLP175 T01060078 51009
Loading
Personal Weather Stations






























Interactive Weather Map
Tropical Storm Tracking
New forecast layout! Learn more

10-Day Weather Forecast

Advertisements
Track Severe Weather on mobile